Thursday, May 24, 2018, 5:10 AM CDT
Back to Local

KLOT, Chicago/romeoville, Lewis University Airport

Location: Lockport, IL, United States Lat: 41.608
Local Time: 5:10 AM CDT (10:10 GMT) Lon: -88.094
Time Zone: US/Central Elev: 672 ft

Show me the last for .
Show Decoded

2018-05-24 04:35 METAR KLOT 240935Z AUTO 08003KT 10SM CLR 13/12 A3017 RMK AO2 T01320117 =
2018-05-24 04:15 METAR KLOT 240915Z AUTO 00000KT 10SM CLR 15/12 A3017 RMK AO2 T01500122 =
2018-05-24 03:55 METAR KLOT 240855Z AUTO 00000KT 10SM CLR 15/12 A3016 RMK AO2 T01470122 =
2018-05-24 03:35 METAR KLOT 240835Z AUTO 12003KT 10SM CLR 15/12 A3017 RMK AO2 T01450117 =
2018-05-24 03:15 METAR KLOT 240815Z AUTO 00000KT 10SM CLR 14/12 A3016 RMK AO2 T01420116 =
2018-05-24 02:55 METAR KLOT 240755Z AUTO 00000KT 10SM CLR 14/12 A3017 RMK AO2 T01440116 =
2018-05-24 02:35 METAR KLOT 240735Z AUTO 00000KT 10SM CLR 14/12 A3016 RMK AO2 T01410116 =
2018-05-24 02:15 METAR KLOT 240715Z AUTO 00000KT 10SM CLR 14/11 A3017 RMK AO2 T01390113 =
2018-05-24 01:55 METAR KLOT 240655Z AUTO 08004KT 10SM CLR 15/11 A3017 RMK AO2 T01450112 =
2018-05-24 01:35 METAR KLOT 240635Z AUTO 08004KT 10SM CLR 15/11 A3017 RMK AO2 T01460112 =
2018-05-24 01:15 METAR KLOT 240615Z AUTO 09004KT 10SM CLR 15/11 A3017 RMK AO2 T01520111 =
2018-05-24 00:55 METAR KLOT 240555Z AUTO 08004KT 10SM CLR 14/11 A3017 RMK AO2 T01430109 10246
                 20142 402680102 =
2018-05-24 00:35 METAR KLOT 240535Z AUTO 08003KT 10SM CLR 14/11 A3018 RMK AO2 T01420111 =
2018-05-24 00:15 METAR KLOT 240515Z AUTO 08004KT 10SM CLR 15/11 A3018 RMK AO2 T01520110 =
2018-05-23 23:55 METAR KLOT 240455Z AUTO 08004KT 10SM CLR 16/11 A3019 RMK AO2 T01550110 =
2018-05-23 23:35 METAR KLOT 240435Z AUTO 09005KT 10SM CLR 16/11 A3019 RMK AO2 T01600107 =
2018-05-23 23:10 METAR KLOT 240410Z AUTO 09005KT 10SM CLR 16/11 A3019 RMK AO2 T01610107 =
2018-05-23 22:55 METAR KLOT 240355Z AUTO 09005KT 10SM CLR 17/11 A3019 RMK AO2 T01650105 =
2018-05-23 22:35 METAR KLOT 240335Z AUTO 08005KT 10SM CLR 17/11 A3018 RMK AO2 T01700105 =
2018-05-23 22:15 METAR KLOT 240315Z AUTO 07007KT 10SM CLR 17/11 A3018 RMK AO2 T01710107 =
2018-05-23 22:00 METAR KLOT 240300Z AUTO 08007KT 10SM CLR 18/10 A3018 RMK AO2 T01800103 =
2018-05-23 21:35 METAR KLOT 240235Z AUTO 07006KT 10SM CLR 17/11 A3018 RMK AO2 T01740107 =
2018-05-23 21:15 METAR KLOT 240215Z AUTO 08006KT 10SM CLR 19/10 A3017 RMK AO2 T01880102 =
2018-05-23 20:50 METAR KLOT 240150Z AUTO 08006KT 10SM CLR 19/11 A3017 RMK AO2 T01870106 =
2018-05-23 20:35 METAR KLOT 240135Z AUTO 08006KT 10SM CLR 20/11 A3016 RMK AO2 T01960108 =
2018-05-23 20:15 METAR KLOT 240115Z AUTO 08006KT 10SM CLR 21/11 A3015 RMK AO2 T02060106 =
2018-05-23 19:55 METAR KLOT 240055Z AUTO 08007KT 10SM CLR 22/10 A3015 RMK AO2 T02190103 =
2018-05-23 19:35 METAR KLOT 240035Z AUTO 09008KT 10SM CLR 23/11 A3014 RMK AO2 T02260114 =
2018-05-23 19:15 METAR KLOT 240015Z AUTO 09007KT 10SM CLR 24/10 A3014 RMK AO2 T02370104 =
2018-05-23 18:55 METAR KLOT 232355Z AUTO 08007KT 10SM CLR 25/11 A3014 RMK AO2 T02460106 10268
                 20238 =
2018-05-23 18:35 METAR KLOT 232335Z AUTO 08005KT 10SM CLR 25/10 A3014 RMK AO2 T02510102 =
2018-05-23 18:15 METAR KLOT 232315Z AUTO 09006KT 10SM CLR 26/12 A3014 RMK AO2 T02550115 =
2018-05-23 17:55 METAR KLOT 232255Z AUTO 09007KT 10SM CLR 25/12 A3014 RMK AO2 T02540117 =
2018-05-23 17:35 METAR KLOT 232235Z AUTO 10006KT 10SM CLR 26/12 A3013 RMK AO2 T02600121 =
2018-05-23 17:15 METAR KLOT 232215Z AUTO 09004KT 10SM CLR 27/11 A3014 RMK AO2 T02650112 =
2018-05-23 16:55 METAR KLOT 232155Z AUTO 07004KT 10SM CLR 27/13 A3014 RMK AO2 T02680128 =
2018-05-23 16:35 METAR KLOT 232135Z AUTO 00000KT 10SM CLR 26/11 A3014 RMK AO2 T02610114 =
2018-05-23 16:15 METAR KLOT 232115Z AUTO 00000KT 10SM CLR 27/12 A3014 RMK AO2 T02650124 =
2018-05-23 15:55 METAR KLOT 232055Z AUTO 13004KT 10SM CLR 26/12 A3016 RMK AO2 T02610122 =
2018-05-23 15:35 METAR KLOT 232035Z AUTO 09004KT 10SM CLR 26/13 A3016 RMK AO2 T02590127 =
2018-05-23 15:15 METAR KLOT 232015Z AUTO 12003KT 10SM CLR 26/13 A3017 RMK AO2 T02570129 =
2018-05-23 14:55 METAR KLOT 231955Z AUTO 10005KT 10SM CLR 26/13 A3017 RMK AO2 T02570133 =
2018-05-23 14:35 METAR KLOT 231935Z AUTO 00000KT 10SM CLR 25/13 A3018 RMK AO2 T02510127 =
2018-05-23 14:15 METAR KLOT 231915Z AUTO 09003KT 10SM CLR 25/13 A3019 RMK AO2 T02500126 =
2018-05-23 13:55 METAR KLOT 231855Z AUTO 29003KT 10SM CLR 25/13 A3019 RMK AO2 T02450129 =
2018-05-23 13:35 METAR KLOT 231835Z AUTO 00000KT 10SM CLR 25/13 A3019 RMK AO2 T02480131 =
2018-05-23 13:15 METAR KLOT 231815Z AUTO 00000KT 10SM CLR 24/13 A3021 RMK AO2 T02410126 =
2018-05-23 12:55 METAR KLOT 231755Z AUTO 00000KT 10SM CLR 24/13 A3021 RMK AO2 T02390132 10240
                 20121 =
2018-05-23 12:35 METAR KLOT 231735Z AUTO 23004KT 10SM CLR 24/14 A3021 RMK AO2 T02360136 =
2018-05-23 12:15 METAR KLOT 231715Z AUTO 00000KT 10SM CLR 23/14 A3021 RMK AO2 T02320135 =
2018-05-23 11:55 METAR KLOT 231655Z AUTO 12003KT 10SM CLR 23/14 A3021 RMK AO2 T02290138 =
2018-05-23 11:35 METAR KLOT 231635Z AUTO 18003KT 10SM CLR 23/14 A3021 RMK AO2 T02250143 =
2018-05-23 11:15 METAR KLOT 231615Z AUTO 00000KT 10SM CLR 22/14 A3021 RMK AO2 T02170140 =
2018-05-23 10:55 METAR KLOT 231555Z AUTO 11003KT 10SM CLR 22/15 A3021 RMK AO2 T02180147 =
2018-05-23 10:35 METAR KLOT 231535Z AUTO 05003KT 10SM CLR 21/15 A3021 RMK AO2 T02110154 =
2018-05-23 10:15 METAR KLOT 231515Z AUTO 11004KT 10SM CLR 21/16 A3021 RMK AO2 T02090156 =
2018-05-23 09:55 METAR KLOT 231455Z AUTO 09004KT 10SM CLR 21/15 A3021 RMK AO2 T02050152 =
2018-05-23 09:35 METAR KLOT 231435Z AUTO 08004KT 10SM CLR 20/15 A3021 RMK AO2 T01950153 =
2018-05-23 09:15 METAR KLOT 231415Z AUTO 08003KT 7SM CLR 19/15 A3021 RMK AO2 T01900154 =
2018-05-23 08:55 METAR KLOT 231355Z AUTO 08004KT 7SM CLR 18/15 A3021 RMK AO2 T01810151 =
2018-05-23 08:35 METAR KLOT 231335Z AUTO 00000KT 5SM HZ CLR 17/15 A3021 RMK AO2 T01710146 =
2018-05-23 08:15 METAR KLOT 231315Z AUTO 00000KT 4SM BR CLR 16/14 A3020 RMK AO2 T01620141 =
2018-05-23 07:55 METAR KLOT 231255Z AUTO 00000KT 3SM BR CLR 15/14 A3019 RMK AO2 T01500138 =
2018-05-23 07:35 METAR KLOT 231235Z AUTO 00000KT 2 1/2SM BR CLR 14/14 A3019 RMK AO2 T01380135 =
2018-05-23 07:15 METAR KLOT 231215Z AUTO 00000KT 1 3/4SM BR VV007 12/12 A3019 RMK AO2 T01230123 =
2018-05-23 06:55 METAR KLOT 231155Z AUTO 00000KT 2SM BR CLR 12/12 A3019 RMK AO2 T01200120 10120
                 20102 =
2018-05-23 06:35 METAR KLOT 231135Z AUTO 00000KT 1 3/4SM BR VV007 12/12 A3018 RMK AO2 T01150115 =
2018-05-23 06:15 METAR KLOT 231115Z AUTO 00000KT 1 1/2SM BR VV007 11/11 A3018 RMK AO2 T01100110 =
2018-05-23 05:55 METAR KLOT 231055Z AUTO 00000KT 1SM BR VV007 11/11 A3017 RMK AO2 T01050105 =
2018-05-23 05:35 METAR KLOT 231035Z AUTO 00000KT 1 1/2SM BR VV007 11/11 A3017 RMK AO2 T01050105 =
2018-05-23 05:15 METAR KLOT 231015Z AUTO 00000KT 1 1/2SM BR VV007 11/11 A3016 RMK AO2 T01060106 =

Support USWX by starting your Amazon purchase here.